Airfield :
LOGIN :

Register | Disclaimer

   EN    FR    IT 

 










Legend :    VFR   Marginal VFR   IFR   Intensive IFR   Very Intensive IFR
Visi :
Ceiling :
>= 8 km
>= 3000ft
5 to 8 km
1000 to 3000 ft
1500m to 5 km
500 to 1000 ft
800 to 1500m
200 to 500 ft
< 800m
< 200 ft
Symbols :   Thunderstorms  Fog  Heavy snow  Heavy precipitations  Wind > 20 kt
SIGMETs :     Misc.  Thunderstorms  Icing  Turbulence  Mountain Waves  Volcanic Ashes






- Airport Elevation : 1084 ft
- IATA code : EPL


LFSG - Épinal-Mirecourt

CURRENT METAR :
  • 191600Z AUTO 25010KT 9999 BKN037 BKN043 OVC054 07/01 Q1025

EXPIRED METARs :
  • 191530Z AUTO 26009KT 9999 FEW034 SCT043 BKN052 07/01 Q1025
  • 191500Z AUTO 26009KT CAVOK 07/01 Q1025
  • 191430Z AUTO 26014KT 9999 FEW047 BKN060 07/00 Q1025
  • 191400Z AUTO 26015KT 9999 FEW035 BKN056 07/00 Q1025
  • 191330Z AUTO 25013KT 9999 SCT034 BKN041 BKN048 07/00 Q1025

TAF N/A



MET'MAP, your aeronautical weather chart ! - Copyright ORBIFLY December 2007 - Disclaimer

ORBIFLY MET'MAP TEAM :

Programming & Development : Alexandra Zaïnal
Concept & original design : Baudouin d'Aumeries
Assistance for programming : Marc-Olivier Méhu
Technical & hardware support : Manuel Goepfert

Contact : metmap@orbifly.com




SOURCES & CREDITS :

   NOAA